createdAt,value
2019-03-11T00:00:09.261Z,3.18
2019-03-11T00:01:09.221Z,3.14
2019-03-11T00:02:09.209Z,3.18
2019-03-11T00:03:09.198Z,3.23
2019-03-11T00:04:10.043Z,3.15
2019-03-11T00:05:09.200Z,3.15
2019-03-11T00:06:09.167Z,3.13
2019-03-11T00:07:09.156Z,3.08
2019-03-11T00:08:09.145Z,3.14
2019-03-11T00:09:09.134Z,3.06
2019-03-11T00:10:09.146Z,3.05
2019-03-11T00:11:09.111Z,3.05
2019-03-11T00:12:09.102Z,3.06
2019-03-11T00:13:09.090Z,3.06
2019-03-11T00:14:09.081Z,3.10
2019-03-11T00:15:09.102Z,3.05
2019-03-11T00:16:09.057Z,3.03
2019-03-11T00:17:09.046Z,3.10
2019-03-11T00:18:09.036Z,3.03
2019-03-11T00:19:09.025Z,3.03
2019-03-11T00:20:09.013Z,3.06
2019-03-11T00:21:09.027Z,3.08
2019-03-11T00:22:08.989Z,3.06
2019-03-11T00:23:08.982Z,3.08
2019-03-11T00:24:08.969Z,3.03
2019-03-11T00:25:08.997Z,2.97
2019-03-11T00:26:08.947Z,3.06
2019-03-11T00:27:08.941Z,3.06
2019-03-11T00:28:08.930Z,3.03
2019-03-11T00:29:08.916Z,3.13
2019-03-11T00:30:08.904Z,3.05
2019-03-11T00:31:08.921Z,3.11
2019-03-11T00:32:08.882Z,3.10
2019-03-11T00:33:08.871Z,3.08
2019-03-11T00:34:08.860Z,3.02
2019-03-11T00:35:08.892Z,3.03
2019-03-11T00:36:08.840Z,3.08
2019-03-11T00:37:08.827Z,3.08
2019-03-11T00:38:08.816Z,3.03
2019-03-11T00:39:08.805Z,3.05
2019-03-11T00:40:08.796Z,3.03
2019-03-11T00:41:08.809Z,2.99
2019-03-11T00:42:08.775Z,3.08
2019-03-11T00:43:08.764Z,3.02
2019-03-11T00:44:08.758Z,3.00
2019-03-11T00:45:08.741Z,3.00
2019-03-11T00:46:08.754Z,3.06
2019-03-11T00:47:08.721Z,3.03
2019-03-11T00:48:08.709Z,3.00
2019-03-11T00:49:08.700Z,3.03
2019-03-11T00:50:08.692Z,3.06
2019-03-11T00:51:08.705Z,3.03
2019-03-11T00:52:08.665Z,3.10
2019-03-11T00:53:08.656Z,3.10
2019-03-11T00:54:08.647Z,3.06
2019-03-11T00:55:08.663Z,3.03
2019-03-11T00:56:08.625Z,3.03
2019-03-11T00:57:08.611Z,3.13
2019-03-11T00:58:08.610Z,3.06
2019-03-11T00:59:08.596Z,3.15
2019-03-11T01:00:08.604Z,3.08
2019-03-11T01:01:08.568Z,3.03
2019-03-11T01:02:08.558Z,3.08
2019-03-11T01:03:08.549Z,3.02
2019-03-11T01:04:08.536Z,3.08
2019-03-11T01:05:08.564Z,3.03
2019-03-11T01:06:08.513Z,3.05
2019-03-11T01:07:08.503Z,3.03
2019-03-11T01:08:08.492Z,3.02
2019-03-11T01:09:08.486Z,2.96
2019-03-11T01:10:08.470Z,2.95
2019-03-11T01:11:08.482Z,3.03
2019-03-11T01:12:08.448Z,3.10
2019-03-11T01:13:08.437Z,3.03
2019-03-11T01:14:08.426Z,2.97
2019-03-11T01:15:08.417Z,3.00
2019-03-11T01:16:08.434Z,3.08
2019-03-11T01:17:08.394Z,3.08
2019-03-11T01:18:08.384Z,3.08
2019-03-11T01:19:08.375Z,3.03
2019-03-11T01:20:08.364Z,3.03
2019-03-11T01:21:08.375Z,2.99
2019-03-11T01:22:08.339Z,3.00
2019-03-11T01:23:08.328Z,3.11
2019-03-11T01:24:08.317Z,3.02
2019-03-11T01:25:08.307Z,3.03
2019-03-11T01:26:08.323Z,2.97
2019-03-11T01:27:08.286Z,3.02
2019-03-11T01:28:08.273Z,3.06
2019-03-11T01:29:08.262Z,3.15
2019-03-11T01:30:08.290Z,3.10
2019-03-11T01:31:08.241Z,3.06
2019-03-11T01:32:08.232Z,3.15
2019-03-11T01:33:08.233Z,3.05
2019-03-11T01:34:08.210Z,3.05
2019-03-11T01:35:08.197Z,3.03
2019-03-11T01:36:08.214Z,3.05
2019-03-11T01:37:08.178Z,3.08
2019-03-11T01:38:08.166Z,3.02
2019-03-11T01:39:08.155Z,3.06
2019-03-11T01:40:08.172Z,3.03
2019-03-11T01:41:08.134Z,3.10
2019-03-11T01:42:08.121Z,3.08
2019-03-11T01:43:08.111Z,3.05
2019-03-11T01:44:08.101Z,3.03
2019-03-11T01:45:08.117Z,3.10
2019-03-11T01:46:08.079Z,3.10
2019-03-11T01:47:08.069Z,3.06
2019-03-11T01:48:08.057Z,3.11
2019-03-11T01:49:08.047Z,3.13
2019-03-11T01:50:08.075Z,3.11
2019-03-11T01:51:08.029Z,3.18
2019-03-11T01:52:08.018Z,3.10
2019-03-11T01:53:08.004Z,3.13
2019-03-11T01:54:08.010Z,3.14
2019-03-11T01:55:07.981Z,3.20
2019-03-11T01:56:07.995Z,3.15
2019-03-11T01:57:07.960Z,3.10
2019-03-11T01:58:07.952Z,3.20
2019-03-11T01:59:07.938Z,3.20
2019-03-11T02:00:07.963Z,3.13
2019-03-11T02:01:07.916Z,3.13
2019-03-11T02:02:07.905Z,3.18
2019-03-11T02:03:07.900Z,3.11
2019-03-11T02:04:07.885Z,3.10
2019-03-11T02:05:07.874Z,3.17
2019-03-11T02:06:07.887Z,3.24
2019-03-11T02:07:07.853Z,3.15
2019-03-11T02:08:07.839Z,3.18
2019-03-11T02:09:07.835Z,3.21
2019-03-11T02:10:07.819Z,3.15
2019-03-11T02:11:07.900Z,3.15
2019-03-11T02:12:07.796Z,3.11
2019-03-11T02:13:07.787Z,3.17
2019-03-11T02:14:07.777Z,3.20
2019-03-11T02:15:07.803Z,3.20
2019-03-11T02:16:07.752Z,3.14
2019-03-11T02:17:07.742Z,3.18
2019-03-11T02:18:07.735Z,3.17
2019-03-11T02:19:07.721Z,3.11
2019-03-11T02:20:07.711Z,3.18
2019-03-11T02:21:07.723Z,3.08
2019-03-11T02:22:07.688Z,3.06
2019-03-11T02:23:07.680Z,3.03
2019-03-11T02:24:07.678Z,3.03
2019-03-11T02:25:07.657Z,2.92
2019-03-11T02:26:07.677Z,2.96
2019-03-11T02:27:07.633Z,2.90
2019-03-11T02:28:07.623Z,2.93
2019-03-11T02:29:07.613Z,2.85
2019-03-11T02:30:07.603Z,2.90
2019-03-11T02:31:07.617Z,2.87
2019-03-11T02:32:07.590Z,2.89
2019-03-11T02:33:07.571Z,2.85
2019-03-11T02:34:07.569Z,2.81
2019-03-11T02:35:07.584Z,2.79
2019-03-11T02:36:07.541Z,2.87
2019-03-11T02:37:07.529Z,2.81
2019-03-11T02:38:07.520Z,2.78
2019-03-11T02:39:07.506Z,2.74
2019-03-11T02:40:07.493Z,2.74
2019-03-11T02:41:07.513Z,2.61
2019-03-11T02:42:07.481Z,2.67
2019-03-11T02:43:07.484Z,2.61
2019-03-11T02:44:07.449Z,2.60
2019-03-11T02:45:07.468Z,2.64
2019-03-11T02:46:07.427Z,2.64
2019-03-11T02:47:07.425Z,2.69
2019-03-11T02:48:07.439Z,2.56
2019-03-11T02:49:07.397Z,2.56
2019-03-11T02:50:07.411Z,2.56
2019-03-11T02:51:07.374Z,2.43
2019-03-11T02:52:07.363Z,2.52
2019-03-11T02:53:07.352Z,2.53
2019-03-11T02:54:07.355Z,2.52
2019-03-11T02:55:07.547Z,2.54
2019-03-11T02:56:07.318Z,2.48
2019-03-11T02:57:07.313Z,2.53
2019-03-11T02:58:07.298Z,2.46
2019-03-11T02:59:07.287Z,2.53
2019-03-11T03:00:07.321Z,2.39
2019-03-11T03:01:07.268Z,2.53
2019-03-11T03:02:07.256Z,2.46
2019-03-11T03:03:07.245Z,2.49
2019-03-11T03:04:07.236Z,2.48
2019-03-11T03:05:07.254Z,2.52
2019-03-11T03:06:07.214Z,2.48
2019-03-11T03:07:07.233Z,2.43
2019-03-11T03:08:07.192Z,2.56
2019-03-11T03:09:07.179Z,2.52
2019-03-11T03:10:07.203Z,2.54
2019-03-11T03:11:07.163Z,2.54
2019-03-11T03:12:07.172Z,2.54
2019-03-11T03:13:07.134Z,2.53
2019-03-11T03:14:07.126Z,2.48
2019-03-11T03:15:07.113Z,2.54
2019-03-11T03:16:07.176Z,2.42
2019-03-11T03:17:07.097Z,2.56
2019-03-11T03:18:07.082Z,2.52
2019-03-11T03:19:07.087Z,2.49
2019-03-11T03:20:07.075Z,2.42
2019-03-11T03:21:07.077Z,2.52
2019-03-11T03:22:07.036Z,2.57
2019-03-11T03:23:07.030Z,2.57
2019-03-11T03:24:07.017Z,2.54
2019-03-11T03:25:07.007Z,2.61
2019-03-11T03:26:07.028Z,2.52
2019-03-11T03:27:06.984Z,2.56
2019-03-11T03:28:07.237Z,2.56
2019-03-11T03:29:06.967Z,2.49
2019-03-11T03:30:06.967Z,2.52
2019-03-11T03:31:06.983Z,2.63
2019-03-11T03:32:06.981Z,2.53
2019-03-11T03:33:06.928Z,2.56
2019-03-11T03:34:06.912Z,2.52
2019-03-11T03:35:06.926Z,2.56
2019-03-11T03:36:06.889Z,2.54
2019-03-11T03:37:06.878Z,2.56
2019-03-11T03:38:06.868Z,2.56
2019-03-11T03:39:06.889Z,2.53
2019-03-11T03:40:06.873Z,2.63
2019-03-11T03:41:06.836Z,2.53
2019-03-11T03:42:06.827Z,2.53
2019-03-11T03:43:07.038Z,2.54
2019-03-11T03:44:06.813Z,2.54
2019-03-11T03:45:06.817Z,2.52
2019-03-11T03:46:17.727Z,2.56
2019-03-11T03:47:07.773Z,2.59
2019-03-11T03:48:06.764Z,2.48
2019-03-11T03:49:06.751Z,2.53
2019-03-11T03:50:06.771Z,2.53
2019-03-11T03:51:06.730Z,2.59
2019-03-11T03:52:06.739Z,2.57
2019-03-11T03:53:06.710Z,2.54
2019-03-11T03:54:06.697Z,2.49
2019-03-11T03:55:06.728Z,2.49
2019-03-11T03:56:06.684Z,2.52
2019-03-11T03:57:06.669Z,2.54
2019-03-11T03:58:06.656Z,2.49
2019-03-11T03:59:06.644Z,2.60
2019-03-11T04:00:06.636Z,2.57
2019-03-11T04:01:06.660Z,2.57
2019-03-11T04:02:06.621Z,2.52
2019-03-11T04:03:06.605Z,2.54
2019-03-11T04:04:06.594Z,2.56
2019-03-11T04:05:06.584Z,2.54
2019-03-11T04:06:06.597Z,2.66
2019-03-11T04:07:06.562Z,2.56
2019-03-11T04:08:06.557Z,2.59
2019-03-11T04:09:06.541Z,2.66
2019-03-11T04:10:06.537Z,2.64
2019-03-11T04:11:06.544Z,2.56
2019-03-11T04:12:06.510Z,2.60
2019-03-11T04:13:06.499Z,2.57
2019-03-11T04:14:06.490Z,2.61
2019-03-11T04:15:06.477Z,2.66
2019-03-11T04:16:06.492Z,2.69
2019-03-11T04:17:06.460Z,2.61
2019-03-11T04:18:06.444Z,2.60
2019-03-11T04:19:06.436Z,2.67
2019-03-11T04:20:06.426Z,2.69
2019-03-11T04:21:06.447Z,2.69
2019-03-11T04:22:06.401Z,2.71
2019-03-11T04:23:06.391Z,2.72
2019-03-11T04:24:06.382Z,2.69
2019-03-11T04:25:06.370Z,2.63
2019-03-11T04:26:06.385Z,2.67
2019-03-11T04:27:06.355Z,2.64
2019-03-11T04:28:06.338Z,2.66
2019-03-11T04:29:06.329Z,2.63
2019-03-11T04:30:06.356Z,2.63
2019-03-11T04:31:06.306Z,2.72
2019-03-11T04:32:06.294Z,2.60
2019-03-11T04:33:06.287Z,2.66
2019-03-11T04:34:06.274Z,2.57
2019-03-11T04:35:06.262Z,2.72
2019-03-11T04:36:06.276Z,2.67
2019-03-11T04:37:06.240Z,2.57
2019-03-11T04:38:06.233Z,2.64
2019-03-11T04:39:06.221Z,2.64
2019-03-11T04:40:06.254Z,2.69
2019-03-11T04:41:06.199Z,2.67
2019-03-11T04:42:06.191Z,2.74
2019-03-11T04:43:06.176Z,2.75
2019-03-11T04:44:06.915Z,2.71
2019-03-11T04:45:06.184Z,2.75
2019-03-11T04:46:06.145Z,2.78
2019-03-11T04:47:06.135Z,2.81
2019-03-11T04:48:06.125Z,2.75
2019-03-11T04:49:06.111Z,2.72
2019-03-11T04:50:06.127Z,2.78
2019-03-11T04:51:06.094Z,2.75
2019-03-11T04:52:06.081Z,2.78
2019-03-11T04:53:06.070Z,2.78
2019-03-11T04:54:06.060Z,2.79
2019-03-11T04:55:06.074Z,2.79
2019-03-11T04:56:06.040Z,2.79
2019-03-11T04:57:06.028Z,2.72
2019-03-11T04:58:06.016Z,2.75
2019-03-11T04:59:06.004Z,2.75
2019-03-11T05:00:06.030Z,2.75
2019-03-11T05:01:05.983Z,2.90
2019-03-11T05:02:05.973Z,2.81
2019-03-11T05:03:05.961Z,2.87
2019-03-11T05:04:05.954Z,2.84
2019-03-11T05:05:05.941Z,2.90
2019-03-11T05:06:05.968Z,2.92
2019-03-11T05:07:05.927Z,2.92
2019-03-11T05:08:05.910Z,2.85
2019-03-11T05:09:05.898Z,2.89
2019-03-11T05:10:05.890Z,2.92
2019-03-11T05:11:05.877Z,2.89
2019-03-11T05:12:05.905Z,2.93
2019-03-11T05:13:05.857Z,2.92
2019-03-11T05:14:05.846Z,2.90
2019-03-11T05:15:05.837Z,2.89
2019-03-11T05:16:05.823Z,2.93
2019-03-11T05:17:05.818Z,2.96
2019-03-11T05:18:05.829Z,2.95
2019-03-11T05:19:05.798Z,3.02
2019-03-11T05:20:05.781Z,3.00
2019-03-11T05:21:05.771Z,2.97
2019-03-11T05:22:05.762Z,2.97
2019-03-11T05:23:05.788Z,2.96
2019-03-11T05:24:05.738Z,3.03
2019-03-11T05:25:05.727Z,3.06
2019-03-11T05:26:05.720Z,3.03
2019-03-11T05:27:05.706Z,3.10
2019-03-11T05:28:05.696Z,3.02
2019-03-11T05:29:05.722Z,3.05
2019-03-11T05:30:05.673Z,3.10
2019-03-11T05:31:05.663Z,3.15
2019-03-11T05:32:05.652Z,3.13
2019-03-11T05:33:05.641Z,3.11
2019-03-11T05:34:05.630Z,3.18
2019-03-11T05:35:05.647Z,3.10
2019-03-11T05:36:05.609Z,3.11
2019-03-11T05:37:05.596Z,3.18
2019-03-11T05:38:05.586Z,3.20
2019-03-11T05:39:05.581Z,3.17
2019-03-11T05:40:05.603Z,3.17
2019-03-11T05:41:05.554Z,3.13
2019-03-11T05:42:05.543Z,3.21
2019-03-11T05:43:05.531Z,3.28
2019-03-11T05:44:05.524Z,3.20
2019-03-11T05:45:05.516Z,3.23
2019-03-11T05:46:05.536Z,3.24
2019-03-11T05:47:05.490Z,3.26
2019-03-11T05:48:05.479Z,3.23
2019-03-11T05:49:05.468Z,3.24
2019-03-11T05:50:05.458Z,3.28
2019-03-11T05:51:05.447Z,3.26
2019-03-11T05:52:05.472Z,3.24
2019-03-11T05:53:05.424Z,3.23
2019-03-11T05:54:05.417Z,3.29
2019-03-11T05:55:05.402Z,3.35
2019-03-11T05:56:05.392Z,3.36
2019-03-11T05:57:05.381Z,3.40
2019-03-11T05:58:05.394Z,3.31
2019-03-11T05:59:05.357Z,3.39
2019-03-11T06:00:05.351Z,3.36
2019-03-11T06:01:05.339Z,3.40
2019-03-11T06:02:05.326Z,3.36
2019-03-11T06:03:05.353Z,3.33
2019-03-11T06:04:05.305Z,3.42
2019-03-11T06:05:05.298Z,3.43
2019-03-11T06:06:05.287Z,3.42
2019-03-11T06:07:05.271Z,3.43
2019-03-11T06:08:05.262Z,3.42
2019-03-11T06:09:05.288Z,3.43
2019-03-11T06:10:05.241Z,3.45
2019-03-11T06:11:05.230Z,3.47
2019-03-11T06:12:05.218Z,3.47
2019-03-11T06:13:05.208Z,3.45
2019-03-11T06:14:05.199Z,3.47
2019-03-11T06:15:05.429Z,3.52
2019-03-11T06:16:05.175Z,3.51
2019-03-11T06:17:05.164Z,3.50
2019-03-11T06:18:05.160Z,3.43
2019-03-11T06:19:05.147Z,3.50
2019-03-11T06:20:05.168Z,3.57
2019-03-11T06:21:05.121Z,3.51
2019-03-11T06:22:05.110Z,3.47
2019-03-11T06:23:05.105Z,3.54
2019-03-11T06:24:05.094Z,3.55
2019-03-11T06:25:05.087Z,3.52
2019-03-11T06:26:05.102Z,3.52
2019-03-11T06:27:05.057Z,3.50
2019-03-11T06:28:05.044Z,3.50
2019-03-11T06:29:05.035Z,3.51
2019-03-11T06:30:05.024Z,3.51
2019-03-11T06:31:05.014Z,3.47
2019-03-11T06:32:05.040Z,3.52
2019-03-11T06:33:04.993Z,3.51
2019-03-11T06:34:04.983Z,3.43
2019-03-11T06:35:04.971Z,3.50
2019-03-11T06:36:04.962Z,3.50
2019-03-11T06:37:04.951Z,3.51
2019-03-11T06:38:04.963Z,3.51
2019-03-11T06:39:06.059Z,3.45
2019-03-11T06:40:04.919Z,3.47
2019-03-11T06:41:04.916Z,3.52
2019-03-11T06:42:04.899Z,3.48
2019-03-11T06:43:04.912Z,3.51
2019-03-11T06:44:04.876Z,3.47
2019-03-11T06:45:04.866Z,3.57
2019-03-11T06:46:04.855Z,3.50
2019-03-11T06:47:04.843Z,3.50
2019-03-11T06:48:04.873Z,3.48
2019-03-11T06:49:04.822Z,3.58
2019-03-11T06:50:04.812Z,3.51
2019-03-11T06:51:04.803Z,3.48
2019-03-11T06:52:04.793Z,3.55
2019-03-11T06:53:04.780Z,3.50
2019-03-11T06:54:04.804Z,3.47
2019-03-11T06:55:04.759Z,3.51
2019-03-11T06:56:04.746Z,3.55
2019-03-11T06:57:04.737Z,3.54
2019-03-11T06:58:04.727Z,3.50
2019-03-11T06:59:04.721Z,3.47
2019-03-11T07:00:04.731Z,3.54
2019-03-11T07:01:04.694Z,3.47
2019-03-11T07:02:04.682Z,3.50
2019-03-11T07:03:04.673Z,3.52
2019-03-11T07:04:04.663Z,3.43
2019-03-11T07:05:04.684Z,3.36
2019-03-11T07:06:04.640Z,3.50
2019-03-11T07:07:04.630Z,3.42
2019-03-11T07:08:04.619Z,3.42
2019-03-11T07:09:04.611Z,3.42
2019-03-11T07:10:04.658Z,3.33
2019-03-11T07:11:04.587Z,3.42
2019-03-11T07:12:04.578Z,3.42
2019-03-11T07:13:04.566Z,3.42
2019-03-11T07:14:04.556Z,3.40
2019-03-11T07:15:04.549Z,3.39
2019-03-11T07:16:04.574Z,3.39
2019-03-11T07:17:04.525Z,3.47
2019-03-11T07:18:04.513Z,3.40
2019-03-11T07:19:04.502Z,3.50
2019-03-11T07:20:04.491Z,3.43
2019-03-11T07:21:04.482Z,3.50
2019-03-11T07:22:04.497Z,3.43
2019-03-11T07:23:04.465Z,3.54
2019-03-11T07:24:04.448Z,3.51
2019-03-11T07:25:04.438Z,3.60
2019-03-11T07:26:04.428Z,3.66
2019-03-11T07:27:04.442Z,3.70
2019-03-11T07:28:04.406Z,3.79
2019-03-11T07:29:04.393Z,3.86
2019-03-11T07:30:04.385Z,3.78
2019-03-11T07:31:04.375Z,3.90
2019-03-11T07:32:04.402Z,3.80
2019-03-11T07:33:06.872Z,3.79
2019-03-11T07:34:04.342Z,3.78
2019-03-11T07:35:08.237Z,3.84
2019-03-11T07:36:04.320Z,3.86
2019-03-11T07:37:04.337Z,3.91
2019-03-11T07:38:04.333Z,3.84
2019-03-11T07:39:04.295Z,3.91
2019-03-11T07:40:04.286Z,3.72
2019-03-11T07:41:04.267Z,3.91
2019-03-11T07:42:04.257Z,3.94
2019-03-11T07:43:04.246Z,4.05
2019-03-11T07:44:04.272Z,4.08
2019-03-11T07:45:04.225Z,4.11
2019-03-11T07:46:04.213Z,4.27
2019-03-11T07:47:04.204Z,4.30
2019-03-11T07:48:04.192Z,4.29
2019-03-11T07:49:04.181Z,4.30
2019-03-11T07:50:04.228Z,4.24
2019-03-11T07:51:04.168Z,4.26
2019-03-11T07:52:04.157Z,4.27
2019-03-11T07:53:04.139Z,4.29
2019-03-11T07:54:04.130Z,4.27
2019-03-11T07:55:04.142Z,4.32
2019-03-11T07:56:04.104Z,4.29
2019-03-11T07:57:04.121Z,4.34
2019-03-11T07:58:04.087Z,4.26
2019-03-11T07:59:04.076Z,4.23
2019-03-11T08:00:04.102Z,4.22
2019-03-11T08:01:04.064Z,4.27
2019-03-11T08:02:04.044Z,4.33
2019-03-11T08:03:04.035Z,4.29
2019-03-11T08:04:04.330Z,4.32
2019-03-11T08:05:04.009Z,4.26
2019-03-11T08:06:04.039Z,4.29
2019-03-11T08:07:03.991Z,4.27
2019-03-11T08:08:04.086Z,4.29
2019-03-11T08:09:03.967Z,4.33
2019-03-11T08:10:03.959Z,4.40
2019-03-11T08:11:03.947Z,4.37
2019-03-11T08:12:03.963Z,4.40
2019-03-11T08:13:03.927Z,4.42
2019-03-11T08:14:03.915Z,4.40
2019-03-11T08:15:03.906Z,4.33
2019-03-11T08:16:03.894Z,4.29
2019-03-11T08:17:03.938Z,4.37
2019-03-11T08:18:03.879Z,4.42
2019-03-11T08:19:03.869Z,4.40
2019-03-11T08:20:03.858Z,4.30
2019-03-11T08:21:03.844Z,4.33
2019-03-11T08:22:03.871Z,4.40
2019-03-11T08:23:03.821Z,4.37
2019-03-11T08:24:03.814Z,4.36
2019-03-11T08:25:03.801Z,4.44
2019-03-11T08:26:03.793Z,4.45
2019-03-11T08:27:03.780Z,4.51
2019-03-11T08:28:03.817Z,4.48
2019-03-11T08:29:03.759Z,4.47
2019-03-11T08:30:03.751Z,4.48
2019-03-11T08:31:03.744Z,4.45
2019-03-11T08:32:03.728Z,4.41
2019-03-11T08:33:03.717Z,4.50
2019-03-11T08:34:03.729Z,4.47
2019-03-11T08:35:05.997Z,4.54
2019-03-11T08:36:03.688Z,4.47
2019-03-11T08:37:03.690Z,4.48
2019-03-11T08:38:05.349Z,4.60
2019-03-11T08:39:03.692Z,4.54
2019-03-11T08:40:03.649Z,4.58
2019-03-11T08:41:03.634Z,4.62
2019-03-11T08:42:03.622Z,4.50
2019-03-11T08:43:03.611Z,4.52
2019-03-11T08:44:03.602Z,4.51
2019-03-11T08:45:03.618Z,4.42
2019-03-11T08:46:03.579Z,4.47
2019-03-11T08:47:03.569Z,4.47
2019-03-11T08:48:03.567Z,4.37
2019-03-11T08:49:03.549Z,4.37
2019-03-11T08:50:03.575Z,4.40
2019-03-11T08:51:03.527Z,4.42
2019-03-11T08:52:05.382Z,4.41
2019-03-11T08:53:03.506Z,4.42
2019-03-11T08:54:03.498Z,4.44
2019-03-11T08:55:03.485Z,4.36
2019-03-11T08:56:03.510Z,4.40
2019-03-11T08:57:03.464Z,4.41
2019-03-11T08:58:03.529Z,4.44
2019-03-11T08:59:03.448Z,4.41
2019-03-11T09:00:03.431Z,4.42
2019-03-11T09:01:03.421Z,4.45
2019-03-11T09:02:03.443Z,4.34
2019-03-11T09:03:03.401Z,4.44
2019-03-11T09:04:03.392Z,4.42
2019-03-11T09:05:03.378Z,4.34
2019-03-11T09:06:03.370Z,4.33
2019-03-11T09:07:03.407Z,4.33
2019-03-11T09:08:03.350Z,4.42
2019-03-11T09:09:03.338Z,4.41
2019-03-11T09:10:03.328Z,4.41
2019-03-11T09:11:03.317Z,4.34
2019-03-11T09:12:03.308Z,4.42
2019-03-11T09:13:03.334Z,4.42
2019-03-11T09:14:03.285Z,4.34
2019-03-11T09:15:03.275Z,4.42
2019-03-11T09:16:03.265Z,4.36
2019-03-11T09:17:03.254Z,4.42
2019-03-11T09:18:03.245Z,4.47
2019-03-11T09:19:03.258Z,4.41
2019-03-11T09:20:03.221Z,4.50
2019-03-11T09:21:04.945Z,4.47
2019-03-11T09:22:03.201Z,4.50
2019-03-11T09:23:03.192Z,4.50
2019-03-11T09:24:03.208Z,4.52
2019-03-11T09:25:03.173Z,4.52
2019-03-11T09:26:03.160Z,4.63
2019-03-11T09:27:03.150Z,4.50
2019-03-11T09:28:03.140Z,4.52
2019-03-11T09:29:03.167Z,4.63
2019-03-11T09:30:03.118Z,4.65
2019-03-11T09:31:03.166Z,4.59
2019-03-11T09:32:03.096Z,4.69
2019-03-11T09:33:03.088Z,4.72
2019-03-11T09:34:03.077Z,4.65
2019-03-11T09:35:03.102Z,4.58
2019-03-11T09:36:03.059Z,4.58
2019-03-11T09:37:03.049Z,4.59
2019-03-11T09:38:03.986Z,4.47
2019-03-11T09:39:03.034Z,4.54
2019-03-11T09:40:03.011Z,4.62
2019-03-11T09:41:03.030Z,4.60
2019-03-11T09:42:02.991Z,4.75
2019-03-11T09:43:02.981Z,4.70
2019-03-11T09:44:02.972Z,4.73
2019-03-11T09:45:02.962Z,4.77
2019-03-11T09:46:02.986Z,4.84
2019-03-11T09:47:02.938Z,4.89
2019-03-11T09:48:02.928Z,5.06
2019-03-11T09:49:02.917Z,5.09
2019-03-11T09:50:02.908Z,5.06
2019-03-11T09:51:02.903Z,5.03
2019-03-11T09:52:02.912Z,5.22
2019-03-11T09:53:02.875Z,5.10
2019-03-11T09:54:02.863Z,5.20
2019-03-11T09:55:02.856Z,5.24
2019-03-11T09:56:02.859Z,5.22
2019-03-11T09:57:02.876Z,5.27
2019-03-11T09:58:02.819Z,5.28
2019-03-11T09:59:02.809Z,5.31
2019-03-11T10:00:02.800Z,5.30
2019-03-11T10:01:02.785Z,5.40
2019-03-11T10:02:02.776Z,5.30
2019-03-11T10:03:02.801Z,5.28
2019-03-11T10:04:02.755Z,5.28
2019-03-11T10:05:02.742Z,5.38
2019-03-11T10:06:02.731Z,5.40
2019-03-11T10:07:02.721Z,5.45
2019-03-11T10:08:02.879Z,5.46
2019-03-11T10:09:02.729Z,5.54
2019-03-11T10:10:02.695Z,5.49
2019-03-11T10:11:02.678Z,5.46
2019-03-11T10:12:02.666Z,5.49
2019-03-11T10:13:02.656Z,5.45
2019-03-11T10:14:02.674Z,5.31
2019-03-11T10:15:02.636Z,5.25
2019-03-11T10:16:02.625Z,5.28
2019-03-11T10:17:02.616Z,5.31
2019-03-11T10:18:02.606Z,5.39
2019-03-11T10:19:02.629Z,5.20
2019-03-11T10:20:02.583Z,5.24
2019-03-11T10:21:02.570Z,5.24
2019-03-11T10:22:02.562Z,5.24
2019-03-11T10:23:02.550Z,5.24
2019-03-11T10:24:02.543Z,5.22
2019-03-11T10:25:02.568Z,5.21
2019-03-11T10:26:02.519Z,5.22
2019-03-11T10:27:02.507Z,5.24
2019-03-11T10:28:02.501Z,5.22
2019-03-11T10:29:02.488Z,5.12
2019-03-11T10:30:02.474Z,5.06
2019-03-11T10:31:02.488Z,5.10
2019-03-11T10:32:02.454Z,5.13
2019-03-11T10:33:02.460Z,5.10
2019-03-11T10:34:02.432Z,5.13
2019-03-11T10:35:02.419Z,5.09
2019-03-11T10:36:02.444Z,5.25
2019-03-11T10:37:02.400Z,5.22
2019-03-11T10:38:02.389Z,5.21
2019-03-11T10:39:02.378Z,5.25
2019-03-11T10:40:02.371Z,5.43
2019-03-11T10:41:02.357Z,5.57
2019-03-11T10:42:02.382Z,5.65
2019-03-11T10:43:02.339Z,5.71
2019-03-11T10:44:02.325Z,5.76
2019-03-11T10:45:02.313Z,5.75
2019-03-11T10:46:02.310Z,5.81
2019-03-11T10:47:02.294Z,5.71
2019-03-11T10:48:02.336Z,5.83
2019-03-11T10:49:02.273Z,5.83
2019-03-11T10:50:02.262Z,5.79
2019-03-11T10:51:02.332Z,5.94
2019-03-11T10:52:02.251Z,6.03
2019-03-11T10:53:02.229Z,6.17
2019-03-11T10:54:02.245Z,6.22
2019-03-11T10:55:02.208Z,6.22
2019-03-11T10:56:02.199Z,6.22
2019-03-11T10:57:02.188Z,6.27
2019-03-11T10:58:02.175Z,6.46
2019-03-11T10:59:02.206Z,6.52
2019-03-11T11:00:02.152Z,6.66
2019-03-11T11:01:02.145Z,6.79
2019-03-11T11:02:02.138Z,6.73
2019-03-11T11:03:02.122Z,6.79
2019-03-11T11:04:02.111Z,6.79
2019-03-11T11:05:02.141Z,6.62
2019-03-11T11:06:02.087Z,6.62
2019-03-11T11:07:02.077Z,6.56
2019-03-11T11:08:02.069Z,6.43
2019-03-11T11:09:02.059Z,6.38
2019-03-11T11:10:02.053Z,6.27
2019-03-11T11:11:02.062Z,6.11
2019-03-11T11:12:02.024Z,5.96
2019-03-11T11:13:02.013Z,5.99
2019-03-11T11:14:02.002Z,5.93
2019-03-11T11:15:01.989Z,5.79
2019-03-11T11:16:02.017Z,5.79
2019-03-11T11:17:01.972Z,5.60
2019-03-11T11:18:01.962Z,5.48
2019-03-11T11:19:01.950Z,5.56
2019-03-11T11:20:03.645Z,5.43
2019-03-11T11:21:01.931Z,5.42
2019-03-11T11:22:01.953Z,5.33
2019-03-11T11:23:01.906Z,5.36
2019-03-11T11:24:01.893Z,5.48
2019-03-11T11:25:01.882Z,5.40
2019-03-11T11:26:01.887Z,5.42
2019-03-11T11:27:01.863Z,5.49
2019-03-11T11:28:01.891Z,5.40
2019-03-11T11:29:01.839Z,5.51
2019-03-11T11:30:01.829Z,5.38
2019-03-11T11:31:01.819Z,5.31
2019-03-11T11:32:01.809Z,5.25
2019-03-11T11:33:01.798Z,5.25
2019-03-11T11:34:01.815Z,5.13
2019-03-11T11:35:01.777Z,5.07
2019-03-11T11:36:01.766Z,5.07
2019-03-11T11:37:01.754Z,4.92
2019-03-11T11:38:01.747Z,4.91
2019-03-11T11:39:01.770Z,4.91
2019-03-11T11:40:01.725Z,5.09
2019-03-11T11:41:01.712Z,4.92
2019-03-11T11:42:01.700Z,4.88
2019-03-11T11:43:01.690Z,4.85
2019-03-11T11:44:01.681Z,4.78
2019-03-11T11:45:01.708Z,4.65
2019-03-11T11:46:01.658Z,4.62
2019-03-11T11:47:01.646Z,4.58
2019-03-11T11:48:01.636Z,4.59
2019-03-11T11:49:01.628Z,4.62
2019-03-11T11:50:01.615Z,4.63
2019-03-11T11:51:01.627Z,4.52
2019-03-11T11:52:01.593Z,4.45
2019-03-11T11:53:01.583Z,4.41
2019-03-11T11:54:01.576Z,4.41
2019-03-11T11:55:01.577Z,4.32
2019-03-11T11:56:01.586Z,4.41
2019-03-11T11:57:01.569Z,4.34
2019-03-11T11:58:01.525Z,4.30
2019-03-11T11:59:01.518Z,4.34
2019-03-11T12:00:01.508Z,4.26
2019-03-11T12:01:01.495Z,4.27
2019-03-11T12:02:04.094Z,4.26
2019-03-11T12:03:01.473Z,4.33
2019-03-11T12:04:01.467Z,4.33
2019-03-11T12:05:01.453Z,4.26
2019-03-11T12:06:01.443Z,4.30
2019-03-11T12:07:01.431Z,4.29
2019-03-11T12:08:01.445Z,4.26
2019-03-11T12:09:01.410Z,4.23
2019-03-11T12:10:01.399Z,4.29
2019-03-11T12:11:01.392Z,4.30
2019-03-11T12:12:01.376Z,4.27
2019-03-11T12:13:01.404Z,4.29
2019-03-11T12:14:01.355Z,4.26
2019-03-11T12:15:01.345Z,4.36
2019-03-11T12:16:01.334Z,4.33
2019-03-11T12:17:01.324Z,4.41
2019-03-11T12:18:01.313Z,4.45
2019-03-11T12:19:01.338Z,4.45
2019-03-11T12:20:01.294Z,4.47
2019-03-11T12:21:01.282Z,4.58
2019-03-11T12:22:01.270Z,4.58
2019-03-11T12:23:01.260Z,4.62
2019-03-11T12:24:01.251Z,4.60
2019-03-11T12:25:01.276Z,4.63
2019-03-11T12:26:01.235Z,4.67
2019-03-11T12:27:01.218Z,4.66
2019-03-11T12:28:01.209Z,4.73
2019-03-11T12:29:01.199Z,4.65
2019-03-11T12:30:01.208Z,4.63
2019-03-11T12:31:01.201Z,4.66
2019-03-11T12:32:01.166Z,4.63
2019-03-11T12:33:01.158Z,4.70
2019-03-11T12:34:01.149Z,4.78
2019-03-11T12:35:01.132Z,4.63
2019-03-11T12:36:01.151Z,4.63
2019-03-11T12:37:01.121Z,4.75
2019-03-11T12:38:01.101Z,4.82
2019-03-11T12:39:01.099Z,4.78
2019-03-11T12:40:01.085Z,4.77
2019-03-11T12:41:01.112Z,4.77
2019-03-11T12:42:01.072Z,4.78
2019-03-11T12:43:01.051Z,4.82
2019-03-11T12:44:01.037Z,4.70
2019-03-11T12:45:01.032Z,4.82
2019-03-11T12:46:01.017Z,4.84
2019-03-11T12:47:01.045Z,4.96
2019-03-11T12:48:00.993Z,5.04
2019-03-11T12:49:00.983Z,5.12
2019-03-11T12:50:00.974Z,5.12
2019-03-11T12:51:00.960Z,5.24
2019-03-11T12:52:00.950Z,5.22
2019-03-11T12:53:00.966Z,5.35
2019-03-11T12:54:00.937Z,5.40
2019-03-11T12:55:00.920Z,5.43
2019-03-11T12:56:00.906Z,5.36
2019-03-11T12:57:00.896Z,5.39
2019-03-11T12:58:00.916Z,5.31
2019-03-11T12:59:00.877Z,5.40
2019-03-11T13:00:00.864Z,5.27
2019-03-11T13:01:03.444Z,5.28
2019-03-11T13:02:00.842Z,5.27
2019-03-11T13:03:00.867Z,5.30
2019-03-11T13:04:00.822Z,5.30
2019-03-11T13:05:00.818Z,5.21
2019-03-11T13:06:00.798Z,5.17
2019-03-11T13:07:00.786Z,5.22
2019-03-11T13:08:00.844Z,5.20
2019-03-11T13:09:00.801Z,5.27
2019-03-11T13:10:00.753Z,5.20
2019-03-11T13:11:00.745Z,5.25
2019-03-11T13:12:00.733Z,5.27
2019-03-11T13:13:00.720Z,5.30
2019-03-11T13:14:00.712Z,5.39
2019-03-11T13:15:00.754Z,5.31
2019-03-11T13:16:00.690Z,5.42
2019-03-11T13:17:00.682Z,5.39
2019-03-11T13:18:00.666Z,5.51